sensor_id;sensor_type;location;lat;lon;timestamp;pressure;altitude;pressure_sealevel;temperature;humidity
24996;BME280;13016;52.162;21.034;2023-09-08T00:04:34;101377.23;;;23.82;50.62
24996;BME280;13016;52.162;21.034;2023-09-08T00:10:34;101372.81;;;23.76;50.96
24996;BME280;13016;52.162;21.034;2023-09-08T00:16:35;101374.00;;;23.69;50.94
24996;BME280;13016;52.162;21.034;2023-09-08T00:22:37;101374.63;;;23.63;51.30
24996;BME280;13016;52.162;21.034;2023-09-08T00:28:38;101366.07;;;23.52;51.56
24996;BME280;13016;52.162;21.034;2023-09-08T00:34:40;101364.36;;;23.53;51.73
24996;BME280;13016;52.162;21.034;2023-09-08T00:40:42;101363.38;;;23.57;51.49
24996;BME280;13016;52.162;21.034;2023-09-08T00:46:43;101364.05;;;23.59;51.25
24996;BME280;13016;52.162;21.034;2023-09-08T00:52:46;101365.55;;;23.61;51.27
24996;BME280;13016;52.162;21.034;2023-09-08T00:58:46;101365.11;;;23.54;51.19
24996;BME280;13016;52.162;21.034;2023-09-08T01:04:46;101370.58;;;23.39;51.75
24996;BME280;13016;52.162;21.034;2023-09-08T01:10:47;101372.79;;;23.32;51.82
24996;BME280;13016;52.162;21.034;2023-09-08T01:16:48;101371.96;;;23.25;52.06
24996;BME280;13016;52.162;21.034;2023-09-08T01:29:13;101362.05;;;23.18;52.31
24996;BME280;13016;52.162;21.034;2023-09-08T01:35:16;101354.60;;;23.13;52.60
24996;BME280;13016;52.162;21.034;2023-09-08T01:41:18;101351.08;;;23.09;52.70
24996;BME280;13016;52.162;21.034;2023-09-08T01:47:19;101348.38;;;23.05;52.88
24996;BME280;13016;52.162;21.034;2023-09-08T01:53:19;101347.44;;;23.04;52.86
24996;BME280;13016;52.162;21.034;2023-09-08T01:59:20;101345.10;;;23.00;53.05
24996;BME280;13016;52.162;21.034;2023-09-08T02:05:20;101343.86;;;22.98;53.07
24996;BME280;13016;52.162;21.034;2023-09-08T02:11:20;101339.38;;;22.96;53.20
24996;BME280;13016;52.162;21.034;2023-09-08T02:17:21;101331.44;;;22.91;53.43
24996;BME280;13016;52.162;21.034;2023-09-08T02:23:22;101339.16;;;22.91;53.46
24996;BME280;13016;52.162;21.034;2023-09-08T02:29:22;101341.32;;;22.88;53.47
24996;BME280;13016;52.162;21.034;2023-09-08T02:35:24;101338.45;;;22.78;53.78
24996;BME280;13016;52.162;21.034;2023-09-08T02:41:45;101334.02;;;22.72;53.99
24996;BME280;13016;52.162;21.034;2023-09-08T02:47:45;101329.66;;;22.67;54.33
24996;BME280;13016;52.162;21.034;2023-09-08T02:53:45;101319.57;;;22.62;54.62
24996;BME280;13016;52.162;21.034;2023-09-08T02:59:50;101315.30;;;22.54;54.93
24996;BME280;13016;52.162;21.034;2023-09-08T03:05:56;101318.80;;;22.55;55.12
24996;BME280;13016;52.162;21.034;2023-09-08T03:12:16;101316.27;;;22.61;54.92
24996;BME280;13016;52.162;21.034;2023-09-08T03:18:17;101316.26;;;22.66;54.71
24996;BME280;13016;52.162;21.034;2023-09-08T03:24:21;101308.06;;;22.65;54.76
24996;BME280;13016;52.162;21.034;2023-09-08T03:30:22;101302.33;;;22.63;54.90
24996;BME280;13016;52.162;21.034;2023-09-08T03:36:22;101300.48;;;22.58;55.04
24996;BME280;13016;52.162;21.034;2023-09-08T03:42:22;101298.66;;;22.49;55.38
24996;BME280;13016;52.162;21.034;2023-09-08T03:48:22;101305.07;;;22.51;55.40
24996;BME280;13016;52.162;21.034;2023-09-08T03:54:23;101299.83;;;22.52;55.58
24996;BME280;13016;52.162;21.034;2023-09-08T04:00:24;101306.61;;;22.60;55.28
24996;BME280;13016;52.162;21.034;2023-09-08T04:06:24;101308.23;;;22.63;55.15
24996;BME280;13016;52.162;21.034;2023-09-08T04:12:24;101305.16;;;22.66;55.09
24996;BME280;13016;52.162;21.034;2023-09-08T04:18:27;101303.66;;;22.62;55.05
24996;BME280;13016;52.162;21.034;2023-09-08T04:24:28;101300.75;;;22.61;55.21
24996;BME280;13016;52.162;21.034;2023-09-08T04:30:36;101299.65;;;22.67;55.15
24996;BME280;13016;52.162;21.034;2023-09-08T04:36:36;101299.49;;;22.68;55.19
24996;BME280;13016;52.162;21.034;2023-09-08T04:42:36;101299.86;;;22.57;55.43
24996;BME280;13016;52.162;21.034;2023-09-08T04:48:57;101299.46;;;22.50;55.81
24996;BME280;13016;52.162;21.034;2023-09-08T04:54:57;101294.77;;;22.58;55.78
24996;BME280;13016;52.162;21.034;2023-09-08T05:00:57;101293.59;;;22.64;55.63
24996;BME280;13016;52.162;21.034;2023-09-08T05:06:57;101292.77;;;22.73;55.51
24996;BME280;13016;52.162;21.034;2023-09-08T05:12:58;101291.49;;;22.82;55.30
24996;BME280;13016;52.162;21.034;2023-09-08T05:32:11;101277.31;;;23.26;54.17
24996;BME280;13016;52.162;21.034;2023-09-08T05:38:19;101281.70;;;23.40;53.73
24996;BME280;13016;52.162;21.034;2023-09-08T05:44:20;101278.19;;;23.52;53.46
24996;BME280;13016;52.162;21.034;2023-09-08T05:50:22;101279.09;;;23.82;52.99
24996;BME280;13016;52.162;21.034;2023-09-08T05:56:42;101289.09;;;24.46;51.69
24996;BME280;13016;52.162;21.034;2023-09-08T06:02:43;101293.02;;;25.11;50.15
24996;BME280;13016;52.162;21.034;2023-09-08T06:09:05;101293.17;;;25.77;48.69
24996;BME280;13016;52.162;21.034;2023-09-08T06:15:07;101298.93;;;26.89;46.80
24996;BME280;13016;52.162;21.034;2023-09-08T06:21:08;101293.41;;;27.72;44.13
24996;BME280;13016;52.162;21.034;2023-09-08T06:27:27;101292.95;;;28.40;42.87
24996;BME280;13016;52.162;21.034;2023-09-08T06:33:27;101296.45;;;28.95;41.49
24996;BME280;13016;52.162;21.034;2023-09-08T06:39:27;101295.46;;;29.93;39.00
24996;BME280;13016;52.162;21.034;2023-09-08T06:45:28;101303.09;;;30.27;38.55
24996;BME280;13016;52.162;21.034;2023-09-08T06:57:47;101307.41;;;31.58;35.86
24996;BME280;13016;52.162;21.034;2023-09-08T09:27:36;101261.66;;;34.84;30.91
24996;BME280;13016;52.162;21.034;2023-09-08T10:47:25;101200.56;;;32.59;29.53
24996;BME280;13016;52.162;21.034;2023-09-08T10:59:56;101193.30;;;32.51;30.05
24996;BME280;13016;52.162;21.034;2023-09-08T11:06:05;101183.95;;;32.49;30.97
24996;BME280;13016;52.162;21.034;2023-09-08T11:48:41;101150.48;;;32.68;30.79
24996;BME280;13016;52.162;21.034;2023-09-08T11:55:01;101143.46;;;32.59;30.82
24996;BME280;13016;52.162;21.034;2023-09-08T12:15:44;101133.83;;;33.12;30.31
24996;BME280;13016;52.162;21.034;2023-09-08T12:22:14;101128.35;;;32.99;29.43
24996;BME280;13016;52.162;21.034;2023-09-08T12:28:19;101125.23;;;32.77;30.00
24996;BME280;13016;52.162;21.034;2023-09-08T12:40:44;101110.73;;;32.62;29.58
24996;BME280;13016;52.162;21.034;2023-09-08T14:12:05;101029.64;;;32.78;28.97
24996;BME280;13016;52.162;21.034;2023-09-08T14:18:05;101024.66;;;32.77;29.34
24996;BME280;13016;52.162;21.034;2023-09-08T14:24:05;101027.61;;;32.70;29.18
24996;BME280;13016;52.162;21.034;2023-09-08T14:30:09;101022.55;;;32.56;29.98
24996;BME280;13016;52.162;21.034;2023-09-08T14:36:09;101023.30;;;32.60;30.14
24996;BME280;13016;52.162;21.034;2023-09-08T14:48:55;101005.23;;;32.14;30.45
24996;BME280;13016;52.162;21.034;2023-09-08T14:54:55;100999.73;;;32.18;31.27
24996;BME280;13016;52.162;21.034;2023-09-08T15:00:55;100999.45;;;32.18;31.00
24996;BME280;13016;52.162;21.034;2023-09-08T15:06:56;100987.50;;;32.29;30.61
24996;BME280;13016;52.162;21.034;2023-09-08T15:12:56;100981.12;;;32.27;30.58
24996;BME280;13016;52.162;21.034;2023-09-08T15:18:56;100974.58;;;32.33;30.54
24996;BME280;13016;52.162;21.034;2023-09-08T15:24:56;100972.11;;;32.25;30.93
24996;BME280;13016;52.162;21.034;2023-09-08T15:30:57;100963.91;;;32.06;30.67
24996;BME280;13016;52.162;21.034;2023-09-08T15:36:57;100967.34;;;32.02;30.63
24996;BME280;13016;52.162;21.034;2023-09-08T15:42:57;100958.30;;;32.01;30.47
24996;BME280;13016;52.162;21.034;2023-09-08T15:48:58;100954.88;;;32.01;29.94
24996;BME280;13016;52.162;21.034;2023-09-08T16:01:55;100949.13;;;31.89;30.19
24996;BME280;13016;52.162;21.034;2023-09-08T16:07:56;100953.80;;;31.87;30.40
24996;BME280;13016;52.162;21.034;2023-09-08T16:13:56;100948.51;;;31.84;30.45
24996;BME280;13016;52.162;21.034;2023-09-08T16:19:56;100945.27;;;31.70;31.29
24996;BME280;13016;52.162;21.034;2023-09-08T16:25:56;100939.83;;;31.60;31.54
24996;BME280;13016;52.162;21.034;2023-09-08T16:31:57;100938.13;;;31.53;31.63
24996;BME280;13016;52.162;21.034;2023-09-08T16:37:57;100939.98;;;31.40;32.01
24996;BME280;13016;52.162;21.034;2023-09-08T16:43:57;100946.83;;;31.27;32.22
24996;BME280;13016;52.162;21.034;2023-09-08T16:49:58;100946.73;;;31.10;32.63
24996;BME280;13016;52.162;21.034;2023-09-08T16:55:58;100944.27;;;30.98;32.70
24996;BME280;13016;52.162;21.034;2023-09-08T17:01:58;100948.90;;;30.86;32.98
24996;BME280;13016;52.162;21.034;2023-09-08T17:07:59;100952.69;;;30.71;33.23
24996;BME280;13016;52.162;21.034;2023-09-08T17:13:59;100953.09;;;30.58;33.58
24996;BME280;13016;52.162;21.034;2023-09-08T17:19:59;100951.30;;;30.43;33.67
24996;BME280;13016;52.162;21.034;2023-09-08T17:25:59;100949.22;;;30.27;33.95
24996;BME280;13016;52.162;21.034;2023-09-08T17:32:00;100943.52;;;30.12;34.15
24996;BME280;13016;52.162;21.034;2023-09-08T17:38:00;100941.53;;;29.94;34.53
24996;BME280;13016;52.162;21.034;2023-09-08T17:44:00;100944.77;;;29.76;34.73
24996;BME280;13016;52.162;21.034;2023-09-08T17:50:00;100947.01;;;29.58;35.00
24996;BME280;13016;52.162;21.034;2023-09-08T17:56:01;100948.84;;;29.43;35.26
24996;BME280;13016;52.162;21.034;2023-09-08T18:02:02;100958.70;;;29.28;35.62
24996;BME280;13016;52.162;21.034;2023-09-08T18:08:02;100960.79;;;29.11;36.04
24996;BME280;13016;52.162;21.034;2023-09-08T18:14:03;100954.79;;;28.96;36.23
24996;BME280;13016;52.162;21.034;2023-09-08T18:20:03;100950.67;;;28.84;36.63
24996;BME280;13016;52.162;21.034;2023-09-08T18:26:04;100949.96;;;28.70;37.00
24996;BME280;13016;52.162;21.034;2023-09-08T18:32:04;100947.92;;;28.55;37.11
24996;BME280;13016;52.162;21.034;2023-09-08T18:38:04;100950.29;;;28.42;37.59
24996;BME280;13016;52.162;21.034;2023-09-08T18:44:05;100950.30;;;28.27;38.06
24996;BME280;13016;52.162;21.034;2023-09-08T18:50:05;100938.30;;;28.10;38.79
24996;BME280;13016;52.162;21.034;2023-09-08T18:56:06;100938.21;;;27.98;39.13
24996;BME280;13016;52.162;21.034;2023-09-08T19:02:06;100937.16;;;27.86;39.37
24996;BME280;13016;52.162;21.034;2023-09-08T19:08:07;100933.31;;;27.76;39.54
24996;BME280;13016;52.162;21.034;2023-09-08T19:14:07;100929.32;;;27.65;40.01
24996;BME280;13016;52.162;21.034;2023-09-08T19:20:08;100934.75;;;27.49;40.46
24996;BME280;13016;52.162;21.034;2023-09-08T19:26:08;100932.78;;;27.29;41.41
24996;BME280;13016;52.162;21.034;2023-09-08T19:32:09;100932.64;;;27.13;41.78
24996;BME280;13016;52.162;21.034;2023-09-08T19:38:09;100926.83;;;27.04;41.92
24996;BME280;13016;52.162;21.034;2023-09-08T19:44:09;100928.77;;;26.97;42.25
24996;BME280;13016;52.162;21.034;2023-09-08T19:50:11;100927.31;;;26.90;42.35
24996;BME280;13016;52.162;21.034;2023-09-08T19:56:11;100922.79;;;26.81;42.54
24996;BME280;13016;52.162;21.034;2023-09-08T20:02:11;100923.84;;;26.69;42.93
24996;BME280;13016;52.162;21.034;2023-09-08T20:08:12;100917.85;;;26.61;43.06
24996;BME280;13016;52.162;21.034;2023-09-08T20:14:12;100912.92;;;26.53;43.44
24996;BME280;13016;52.162;21.034;2023-09-08T20:20:12;100915.05;;;26.43;43.74
24996;BME280;13016;52.162;21.034;2023-09-08T20:26:13;100911.44;;;26.33;44.12
24996;BME280;13016;52.162;21.034;2023-09-08T20:32:13;100911.34;;;26.25;44.22
24996;BME280;13016;52.162;21.034;2023-09-08T20:38:13;100912.86;;;26.20;44.53
24996;BME280;13016;52.162;21.034;2023-09-08T20:44:13;100914.42;;;26.12;44.68
24996;BME280;13016;52.162;21.034;2023-09-08T20:50:15;100915.52;;;25.98;45.40
24996;BME280;13016;52.162;21.034;2023-09-08T20:56:15;100916.83;;;25.87;45.62
24996;BME280;13016;52.162;21.034;2023-09-08T21:02:15;100916.59;;;25.75;46.34
24996;BME280;13016;52.162;21.034;2023-09-08T21:08:18;100913.81;;;25.59;46.88
24996;BME280;13016;52.162;21.034;2023-09-08T21:14:18;100912.08;;;25.55;46.85
24996;BME280;13016;52.162;21.034;2023-09-08T21:20:19;100908.66;;;25.55;46.96
24996;BME280;13016;52.162;21.034;2023-09-08T21:26:19;100909.80;;;25.36;47.57
24996;BME280;13016;52.162;21.034;2023-09-08T21:32:21;100912.79;;;25.29;47.90
24996;BME280;13016;52.162;21.034;2023-09-08T21:38:22;100909.00;;;25.19;48.26
24996;BME280;13016;52.162;21.034;2023-09-08T21:44:22;100913.52;;;25.18;48.04
24996;BME280;13016;52.162;21.034;2023-09-08T21:50:22;100911.43;;;25.09;48.81
24996;BME280;13016;52.162;21.034;2023-09-08T21:56:22;100914.91;;;24.96;49.38
24996;BME280;13016;52.162;21.034;2023-09-08T22:02:23;100915.66;;;24.98;49.05
24996;BME280;13016;52.162;21.034;2023-09-08T22:08:23;100914.98;;;24.87;49.43
24996;BME280;13016;52.162;21.034;2023-09-08T22:14:23;100925.11;;;24.79;49.79
24996;BME280;13016;52.162;21.034;2023-09-08T22:20:23;100919.89;;;24.73;49.76
24996;BME280;13016;52.162;21.034;2023-09-08T22:26:24;100912.45;;;24.66;49.86
24996;BME280;13016;52.162;21.034;2023-09-08T22:32:24;100909.30;;;24.58;50.07
24996;BME280;13016;52.162;21.034;2023-09-08T22:38:24;100908.88;;;24.44;50.28
24996;BME280;13016;52.162;21.034;2023-09-08T22:44:24;100904.13;;;24.28;50.53
24996;BME280;13016;52.162;21.034;2023-09-08T22:50:24;100905.35;;;24.21;50.71
24996;BME280;13016;52.162;21.034;2023-09-08T22:56:25;100900.45;;;24.15;50.76
24996;BME280;13016;52.162;21.034;2023-09-08T23:02:26;100898.10;;;24.13;50.68
24996;BME280;13016;52.162;21.034;2023-09-08T23:08:27;100900.27;;;24.12;50.76
24996;BME280;13016;52.162;21.034;2023-09-08T23:14:28;100902.89;;;23.97;51.08
24996;BME280;13016;52.162;21.034;2023-09-08T23:20:28;100900.24;;;23.83;51.57
24996;BME280;13016;52.162;21.034;2023-09-08T23:26:29;100900.52;;;23.77;51.68
24996;BME280;13016;52.162;21.034;2023-09-08T23:32:29;100895.19;;;23.72;51.69
24996;BME280;13016;52.162;21.034;2023-09-08T23:38:29;100903.39;;;23.64;52.04
24996;BME280;13016;52.162;21.034;2023-09-08T23:44:30;100903.45;;;23.70;51.82
24996;BME280;13016;52.162;21.034;2023-09-08T23:56:48;100908.17;;;23.67;51.92
